createdAt,value
2023-02-13T00:01:02.785Z,25.27
2023-02-13T00:03:30.234Z,26.13
2023-02-13T00:05:57.609Z,26.45
2023-02-13T00:08:24.843Z,25.48
2023-02-13T00:10:52.093Z,26.90
2023-02-13T00:13:19.363Z,24.48
2023-02-13T00:15:46.630Z,26.50
2023-02-13T00:18:13.942Z,27.45
2023-02-13T00:20:41.322Z,28.58
2023-02-13T00:23:08.822Z,26.80
2023-02-13T00:25:36.397Z,27.90
2023-02-13T00:28:03.993Z,27.38
2023-02-13T00:30:31.429Z,25.65
2023-02-13T00:32:58.951Z,27.25
2023-02-13T00:35:26.344Z,26.63
2023-02-13T00:37:53.726Z,33.17
2023-02-13T00:40:25.351Z,29.33
2023-02-13T00:42:52.647Z,28.30
2023-02-13T00:45:20.024Z,30.42
2023-02-13T00:47:47.746Z,28.80
2023-02-13T00:50:14.977Z,30.50
2023-02-13T00:52:42.275Z,28.45
2023-02-13T00:55:09.481Z,29.25
2023-02-13T00:57:37.292Z,29.60
2023-02-13T01:00:04.789Z,30.40
2023-02-13T01:02:36.172Z,29.45
2023-02-13T01:05:03.652Z,26.60
2023-02-13T01:07:30.952Z,27.95
2023-02-13T01:09:58.195Z,27.75
2023-02-13T01:12:27.612Z,28.20
2023-02-13T01:14:54.890Z,27.02
2023-02-13T01:17:22.120Z,28.63
2023-02-13T01:19:49.377Z,30.58
2023-02-13T01:22:16.596Z,26.90
2023-02-13T01:24:43.947Z,30.60
2023-02-13T01:27:11.188Z,31.40
2023-02-13T01:29:38.823Z,28.10
2023-02-13T01:32:06.336Z,28.77
2023-02-13T01:34:34.635Z,29.92
2023-02-13T01:37:01.934Z,28.95
2023-02-13T01:39:29.186Z,31.55
2023-02-13T01:41:57.073Z,28.27
2023-02-13T01:44:43.082Z,28.75
2023-02-13T01:47:11.401Z,30.50
2023-02-13T01:49:38.966Z,30.67
2023-02-13T01:52:06.193Z,30.30
2023-02-13T01:54:35.282Z,29.58
2023-02-13T01:57:06.542Z,29.13
2023-02-13T01:59:54.032Z,29.13
2023-02-13T02:02:21.928Z,27.85
2023-02-13T02:04:49.456Z,28.95
2023-02-13T02:07:22.044Z,28.60
2023-02-13T02:09:50.562Z,31.55
2023-02-13T02:12:30.008Z,28.50
2023-02-13T02:14:59.045Z,27.25
2023-02-13T02:17:29.968Z,28.67
2023-02-13T02:20:00.723Z,30.95
2023-02-13T02:22:35.762Z,30.52
2023-02-13T02:25:06.254Z,30.95
2023-02-13T02:27:55.411Z,28.70
2023-02-13T02:30:31.145Z,29.30
2023-02-13T02:33:05.055Z,30.52
2023-02-13T02:35:51.122Z,28.52
2023-02-13T02:38:27.157Z,29.45
2023-02-13T02:41:38.684Z,28.63
2023-02-13T02:44:13.391Z,32.05
2023-02-13T02:47:10.681Z,29.10
2023-02-13T02:49:58.258Z,27.17
2023-02-13T02:52:31.283Z,30.83
2023-02-13T02:55:08.499Z,29.63
2023-02-13T02:58:24.368Z,28.38
2023-02-13T03:01:11.458Z,30.23
2023-02-13T03:03:58.181Z,29.08
2023-02-13T03:06:28.771Z,28.48
2023-02-13T03:09:20.527Z,30.20
2023-02-13T03:12:09.503Z,30.52
2023-02-13T03:14:36.864Z,31.00
2023-02-13T03:17:23.327Z,27.73
2023-02-13T03:20:17.300Z,30.33
2023-02-13T03:22:58.659Z,29.52
2023-02-13T03:25:52.420Z,30.83
2023-02-13T03:28:41.196Z,30.77
2023-02-13T03:31:34.668Z,29.98
2023-02-13T03:34:16.290Z,31.08
2023-02-13T03:37:11.185Z,27.50
2023-02-13T03:39:58.624Z,29.08
2023-02-13T03:42:25.886Z,27.65
2023-02-13T03:45:18.562Z,28.75
2023-02-13T03:47:46.200Z,26.48
2023-02-13T03:50:14.615Z,26.90
2023-02-13T03:52:53.168Z,28.10
2023-02-13T03:55:41.781Z,26.50
2023-02-13T03:58:33.418Z,28.23
2023-02-13T04:01:02.789Z,25.75
2023-02-13T04:06:01.613Z,25.65
2023-02-13T04:08:29.014Z,25.30
2023-02-13T04:11:00.419Z,25.30
2023-02-13T04:13:31.968Z,23.85
2023-02-13T04:16:03.775Z,27.30
2023-02-13T04:18:32.403Z,24.50
2023-02-13T04:21:04.383Z,23.73
2023-02-13T04:23:31.975Z,24.77
2023-02-13T04:26:01.318Z,29.00
2023-02-13T04:28:28.985Z,26.85
2023-02-13T04:30:57.644Z,25.25
2023-02-13T04:33:25.354Z,28.15
2023-02-13T04:35:52.829Z,24.73
2023-02-13T04:38:20.347Z,25.92
2023-02-13T04:40:47.785Z,24.73
2023-02-13T04:43:15.272Z,25.92
2023-02-13T04:45:42.668Z,26.45
2023-02-13T04:48:10.181Z,25.35
2023-02-13T04:50:37.414Z,24.90
2023-02-13T04:53:04.626Z,24.65
2023-02-13T04:55:31.903Z,24.27
2023-02-13T04:57:59.180Z,26.30
2023-02-13T05:00:27.306Z,25.95
2023-02-13T05:02:54.900Z,22.45
2023-02-13T05:05:22.343Z,24.77
2023-02-13T05:07:49.576Z,24.20
2023-02-13T05:10:16.909Z,23.55
2023-02-13T05:12:44.133Z,23.63
2023-02-13T05:15:11.747Z,22.40
2023-02-13T05:17:38.932Z,25.33
2023-02-13T05:20:06.900Z,24.90
2023-02-13T05:22:52.584Z,22.35
2023-02-13T05:25:19.958Z,23.58
2023-02-13T05:27:47.345Z,21.92
2023-02-13T05:30:15.038Z,20.45
2023-02-13T05:32:43.421Z,23.10
2023-02-13T05:35:10.822Z,22.43
2023-02-13T05:37:38.069Z,20.92
2023-02-13T05:40:05.601Z,21.40
2023-02-13T05:42:33.045Z,21.58
2023-02-13T05:45:00.403Z,23.55
2023-02-13T05:47:27.725Z,22.08
2023-02-13T05:49:54.954Z,21.38
2023-02-13T05:52:22.305Z,20.73
2023-02-13T05:54:49.642Z,22.30
2023-02-13T05:57:16.898Z,23.05
2023-02-13T05:59:44.235Z,21.38
2023-02-13T06:02:11.527Z,20.88
2023-02-13T06:04:39.619Z,21.98
2023-02-13T06:07:06.851Z,22.83
2023-02-13T06:09:34.311Z,21.65
2023-02-13T06:12:01.638Z,21.40
2023-02-13T06:14:28.855Z,22.13
2023-02-13T06:16:56.218Z,21.40
2023-02-13T06:19:23.590Z,19.92
2023-02-13T06:21:50.877Z,26.02
2023-02-13T06:24:18.249Z,23.58
2023-02-13T06:26:45.535Z,22.48
2023-02-13T06:29:12.936Z,22.75
2023-02-13T06:31:40.256Z,23.48
2023-02-13T06:34:08.132Z,22.38
2023-02-13T06:36:37.554Z,23.67
2023-02-13T06:39:05.210Z,24.02
2023-02-13T06:41:32.515Z,23.67
2023-02-13T06:43:59.815Z,22.15
2023-02-13T06:46:27.237Z,22.50
2023-02-13T06:48:55.122Z,23.58
2023-02-13T06:51:22.346Z,22.58
2023-02-13T06:53:49.845Z,22.52
2023-02-13T06:56:17.220Z,19.67
2023-02-13T06:58:45.780Z,21.50
2023-02-13T07:01:12.989Z,21.48
2023-02-13T07:03:40.363Z,22.00
2023-02-13T07:06:07.825Z,20.70
2023-02-13T07:08:34.991Z,22.40
2023-02-13T07:11:02.477Z,21.13
2023-02-13T07:13:29.897Z,21.00
2023-02-13T07:16:01.494Z,23.63
2023-02-13T07:18:29.625Z,21.90
2023-02-13T07:20:58.769Z,22.10
2023-02-13T07:23:26.137Z,23.20
2023-02-13T07:25:53.506Z,20.05
2023-02-13T07:28:20.765Z,23.90
2023-02-13T07:30:48.082Z,22.38
2023-02-13T07:33:15.344Z,24.15
2023-02-13T07:35:47.416Z,26.00
2023-02-13T07:38:14.970Z,23.38
2023-02-13T07:40:42.602Z,23.65
2023-02-13T07:43:09.988Z,21.50
2023-02-13T07:45:37.403Z,21.30
2023-02-13T07:48:04.703Z,22.80
2023-02-13T07:50:32.472Z,24.65
2023-02-13T07:53:01.224Z,21.38
2023-02-13T07:55:29.602Z,23.35
2023-02-13T07:57:57.709Z,23.02
2023-02-13T08:00:25.063Z,26.52
2023-02-13T08:02:52.456Z,24.50
2023-02-13T08:05:19.685Z,26.83
2023-02-13T08:07:46.996Z,23.42
2023-02-13T08:10:33.250Z,21.63
2023-02-13T08:13:01.076Z,21.95
2023-02-13T08:15:28.351Z,23.30
2023-02-13T08:17:55.572Z,23.10
2023-02-13T08:20:24.043Z,21.92
2023-02-13T08:22:51.527Z,25.00
2023-02-13T08:25:19.667Z,21.80
2023-02-13T08:27:48.921Z,24.70
2023-02-13T08:30:16.758Z,23.20
2023-02-13T08:32:53.831Z,21.70
2023-02-13T08:35:22.676Z,23.02
2023-02-13T08:37:49.993Z,23.05
2023-02-13T08:40:17.377Z,24.02
2023-02-13T08:42:44.688Z,24.70
2023-02-13T08:45:12.096Z,24.95
2023-02-13T08:47:40.079Z,21.95
2023-02-13T08:50:07.740Z,22.38
2023-02-13T08:52:35.161Z,23.27
2023-02-13T08:55:03.630Z,23.77
2023-02-13T08:57:31.524Z,26.55
2023-02-13T08:59:58.877Z,25.60
2023-02-13T09:02:26.244Z,23.05
2023-02-13T09:04:53.595Z,23.95
2023-02-13T09:07:20.874Z,24.15
2023-02-13T09:09:48.225Z,26.02
2023-02-13T09:12:15.466Z,24.02
2023-02-13T09:14:42.818Z,24.30
2023-02-13T09:17:10.438Z,25.48
2023-02-13T09:19:37.720Z,26.55
2023-02-13T09:22:04.981Z,26.95
2023-02-13T09:24:32.384Z,26.23
2023-02-13T09:26:59.691Z,26.00
2023-02-13T09:29:31.310Z,24.92
2023-02-13T09:31:58.712Z,26.38
2023-02-13T09:34:26.643Z,27.75
2023-02-13T09:36:54.416Z,24.30
2023-02-13T09:39:21.613Z,26.58
2023-02-13T09:41:50.778Z,28.38
2023-02-13T09:47:10.784Z,28.60
2023-02-13T09:49:39.944Z,24.38
2023-02-13T09:52:09.760Z,26.38
2023-02-13T09:54:37.046Z,26.38
2023-02-13T09:57:07.201Z,26.63
2023-02-13T09:59:46.802Z,24.48
2023-02-13T10:02:23.031Z,24.50
2023-02-13T10:04:57.318Z,27.10
2023-02-13T10:07:46.610Z,24.77
2023-02-13T10:12:59.555Z,23.48
2023-02-13T10:15:36.082Z,23.88
2023-02-13T10:18:09.901Z,22.98
2023-02-13T10:20:47.708Z,21.75
2023-02-13T10:23:33.533Z,21.25
2023-02-13T10:26:10.166Z,21.38
2023-02-13T10:28:37.512Z,20.67
2023-02-13T10:31:13.529Z,21.10
2023-02-13T10:33:51.045Z,19.10
2023-02-13T10:36:38.614Z,21.00
2023-02-13T10:39:05.906Z,20.52
2023-02-13T10:41:33.134Z,21.38
2023-02-13T10:44:19.578Z,22.50
2023-02-13T10:47:07.089Z,21.73
2023-02-13T10:49:37.178Z,21.95
2023-02-13T10:52:22.984Z,22.38
2023-02-13T10:55:06.437Z,21.35
2023-02-13T10:58:03.185Z,21.42
2023-02-13T11:00:47.476Z,20.55
2023-02-13T11:03:19.496Z,21.83
2023-02-13T11:05:47.246Z,21.70
2023-02-13T11:08:24.766Z,20.60
2023-02-13T11:10:52.380Z,19.48
2023-02-13T11:13:22.863Z,21.00
2023-02-13T11:16:02.718Z,22.77
2023-02-13T11:18:32.125Z,20.42
2023-02-13T11:23:32.532Z,19.98
2023-02-13T11:26:10.192Z,18.25
2023-02-13T11:28:39.328Z,17.27
2023-02-13T11:31:15.093Z,20.73
2023-02-13T11:33:42.562Z,17.60
2023-02-13T11:36:29.857Z,18.38
2023-02-13T11:38:58.604Z,18.15
2023-02-13T11:41:26.674Z,16.50
2023-02-13T11:44:01.012Z,17.20
2023-02-13T11:46:29.802Z,18.65
2023-02-13T11:48:58.401Z,17.13
2023-02-13T11:51:43.635Z,17.52
2023-02-13T11:54:29.769Z,17.05
2023-02-13T11:57:04.705Z,16.38
2023-02-13T11:59:34.250Z,16.77
2023-02-13T12:02:21.013Z,16.95
2023-02-13T12:04:49.759Z,15.70
2023-02-13T12:07:22.097Z,16.80
2023-02-13T12:10:02.621Z,15.73
2023-02-13T12:12:33.809Z,18.67
2023-02-13T12:15:03.415Z,16.63
2023-02-13T12:17:32.518Z,18.77
2023-02-13T12:20:00.426Z,16.65
2023-02-13T12:22:36.926Z,17.95
2023-02-13T12:25:23.793Z,15.93
2023-02-13T12:27:51.012Z,15.32
2023-02-13T12:30:36.581Z,17.65
2023-02-13T12:33:16.550Z,17.38
2023-02-13T12:35:57.830Z,17.27
2023-02-13T12:38:47.852Z,18.17
2023-02-13T12:41:20.779Z,18.92
2023-02-13T12:44:03.514Z,17.45
2023-02-13T12:46:34.910Z,16.77
2023-02-13T12:49:21.165Z,16.63
2023-02-13T12:51:54.251Z,14.80
2023-02-13T12:54:39.976Z,16.27
2023-02-13T12:57:07.272Z,15.38
2023-02-13T12:59:43.863Z,14.98
2023-02-13T13:02:29.725Z,16.48
2023-02-13T13:05:06.240Z,16.63
2023-02-13T13:07:38.081Z,16.60
2023-02-13T13:10:14.773Z,16.17
2023-02-13T13:12:46.542Z,18.15
2023-02-13T13:15:21.414Z,16.70
2023-02-13T13:18:07.432Z,17.30
2023-02-13T13:20:34.869Z,15.98
2023-02-13T13:23:05.476Z,15.23
2023-02-13T13:25:32.926Z,16.58
2023-02-13T13:28:03.296Z,17.25
2023-02-13T13:30:35.847Z,15.43
2023-02-13T13:33:05.622Z,15.65
2023-02-13T13:35:33.943Z,15.70
2023-02-13T13:38:17.499Z,16.67
2023-02-13T13:40:47.668Z,13.75
2023-02-13T13:43:18.957Z,15.13
2023-02-13T13:46:02.591Z,15.60
2023-02-13T13:48:38.797Z,17.00
2023-02-13T13:51:07.754Z,15.73
2023-02-13T13:53:36.084Z,17.00
2023-02-13T13:56:09.414Z,15.38
2023-02-13T13:58:42.820Z,16.02
2023-02-13T14:01:29.616Z,17.20
2023-02-13T14:04:03.500Z,16.15
2023-02-13T14:06:46.197Z,15.75
2023-02-13T14:09:33.772Z,14.40
2023-02-13T14:12:21.063Z,15.20
2023-02-13T14:14:48.475Z,16.25
2023-02-13T14:17:16.800Z,15.63
2023-02-13T14:19:46.829Z,15.10
2023-02-13T14:22:20.298Z,15.52
2023-02-13T14:24:58.053Z,15.35
2023-02-13T14:27:32.766Z,15.75
2023-02-13T14:30:00.731Z,16.80
2023-02-13T14:32:36.500Z,15.40
2023-02-13T14:35:06.934Z,17.15
2023-02-13T14:37:40.219Z,16.17
2023-02-13T14:40:12.053Z,15.32
2023-02-13T14:42:40.092Z,17.83
2023-02-13T14:45:14.002Z,16.38
2023-02-13T14:47:45.912Z,18.02
2023-02-13T14:50:18.518Z,17.13
2023-02-13T14:52:47.338Z,15.52
2023-02-13T14:55:33.131Z,15.45
2023-02-13T14:58:08.033Z,18.10
2023-02-13T15:00:35.272Z,15.82
2023-02-13T15:03:25.163Z,16.67
2023-02-13T15:05:53.962Z,16.40
2023-02-13T15:08:26.827Z,15.80
2023-02-13T15:10:55.480Z,14.65
2023-02-13T15:13:24.103Z,17.50
2023-02-13T15:15:53.219Z,18.95
2023-02-13T15:18:21.739Z,18.05
2023-02-13T15:20:49.194Z,18.92
2023-02-13T15:23:20.761Z,17.52
2023-02-13T15:25:50.735Z,17.98
2023-02-13T15:28:20.286Z,18.33
2023-02-13T15:30:54.662Z,17.17
2023-02-13T15:33:22.652Z,19.25
2023-02-13T15:35:57.024Z,17.30
2023-02-13T15:38:26.193Z,17.33
2023-02-13T15:40:55.518Z,17.30
2023-02-13T15:43:24.675Z,19.67
2023-02-13T15:45:51.965Z,18.17
2023-02-13T15:48:19.244Z,19.63
2023-02-13T15:50:47.752Z,16.77
2023-02-13T15:53:16.904Z,16.95
2023-02-13T15:55:55.915Z,16.35
2023-02-13T15:58:26.178Z,16.05
2023-02-13T16:00:53.626Z,17.25
2023-02-13T16:03:21.305Z,19.88
2023-02-13T16:05:48.685Z,17.25
2023-02-13T16:08:28.549Z,18.73
2023-02-13T16:11:14.483Z,18.60
2023-02-13T16:13:41.765Z,19.42
2023-02-13T16:16:10.819Z,18.40
2023-02-13T16:18:38.155Z,18.33
2023-02-13T16:21:07.078Z,16.88
2023-02-13T16:23:34.303Z,20.20
2023-02-13T16:26:03.319Z,17.80
2023-02-13T16:28:32.657Z,19.13
2023-02-13T16:33:32.022Z,16.25
2023-02-13T16:36:00.696Z,18.80
2023-02-13T16:38:37.217Z,17.70
2023-02-13T16:41:19.595Z,18.25
2023-02-13T16:43:46.995Z,17.85
2023-02-13T16:46:20.273Z,18.40
2023-02-13T16:48:49.376Z,20.17
2023-02-13T16:51:17.471Z,18.48
2023-02-13T16:53:44.718Z,20.55
2023-02-13T16:56:12.142Z,21.02
2023-02-13T16:58:39.454Z,22.48
2023-02-13T17:01:07.091Z,19.42
2023-02-13T17:03:34.878Z,21.95
2023-02-13T17:06:02.784Z,22.45
2023-02-13T17:08:31.547Z,21.35
2023-02-13T17:11:03.706Z,20.70
2023-02-13T17:13:31.240Z,20.00
2023-02-13T17:15:59.985Z,19.00
2023-02-13T17:18:27.733Z,21.20
2023-02-13T17:20:55.411Z,20.95
2023-02-13T17:23:24.326Z,20.55
2023-02-13T17:25:52.730Z,20.20
2023-02-13T17:28:24.346Z,21.40
2023-02-13T17:30:52.584Z,23.35
2023-02-13T17:33:24.917Z,22.17
2023-02-13T17:35:52.832Z,22.15
2023-02-13T17:38:20.133Z,22.63
2023-02-13T17:40:47.787Z,21.08
2023-02-13T17:43:16.839Z,21.88
2023-02-13T17:45:44.192Z,21.70
2023-02-13T17:48:11.510Z,21.10
2023-02-13T17:50:38.863Z,21.73
2023-02-13T17:53:07.560Z,19.17
2023-02-13T17:55:37.970Z,20.90
2023-02-13T17:58:05.242Z,23.08
2023-02-13T18:00:35.341Z,24.67
2023-02-13T18:03:03.816Z,29.13
2023-02-13T18:05:33.077Z,24.93
2023-02-13T18:08:03.996Z,25.55
2023-02-13T18:10:32.627Z,24.50
2023-02-13T18:13:04.353Z,24.58
2023-02-13T18:15:32.653Z,24.05
2023-02-13T18:18:00.232Z,18.77
2023-02-13T18:20:27.454Z,23.02
2023-02-13T18:22:54.707Z,25.17
2023-02-13T18:25:23.616Z,21.73
2023-02-13T18:27:51.098Z,24.45
2023-02-13T18:30:19.612Z,24.27
2023-02-13T18:32:51.122Z,25.23
2023-02-13T18:35:19.121Z,25.73
2023-02-13T18:37:46.404Z,28.15
2023-02-13T18:40:15.101Z,29.58
2023-02-13T18:42:42.439Z,27.00
2023-02-13T18:45:10.072Z,28.45
2023-02-13T18:47:37.428Z,64.00
2023-02-13T18:50:05.319Z,31.70
2023-02-13T18:52:32.625Z,31.27
2023-02-13T18:55:00.072Z,32.67
2023-02-13T18:57:27.453Z,34.50
2023-02-13T18:59:54.713Z,31.40
2023-02-13T19:02:22.066Z,32.60
2023-02-13T19:04:49.402Z,30.40
2023-02-13T19:07:16.643Z,30.95
2023-02-13T19:09:44.435Z,30.58
2023-02-13T19:12:11.842Z,29.90
2023-02-13T19:14:39.634Z,25.00
2023-02-13T19:17:08.654Z,26.70
2023-02-13T19:19:35.938Z,28.05
2023-02-13T19:22:03.594Z,26.02
2023-02-13T19:24:30.947Z,25.77
2023-02-13T19:26:58.229Z,25.67
2023-02-13T19:29:25.509Z,27.42
2023-02-13T19:31:52.811Z,24.55
2023-02-13T19:34:20.060Z,24.17
2023-02-13T19:36:47.426Z,28.65
2023-02-13T19:39:14.620Z,24.25
2023-02-13T19:41:41.982Z,24.30
2023-02-13T19:44:09.247Z,25.83
2023-02-13T19:46:37.850Z,25.67
2023-02-13T19:49:05.626Z,23.90
2023-02-13T19:51:34.590Z,24.10
2023-02-13T19:54:03.527Z,25.25
2023-02-13T19:56:31.432Z,26.27
2023-02-13T19:58:58.743Z,26.35
2023-02-13T20:01:27.235Z,25.05
2023-02-13T20:03:57.528Z,25.42
2023-02-13T20:06:26.317Z,25.17
2023-02-13T20:08:53.747Z,26.58
2023-02-13T20:11:21.689Z,26.67
2023-02-13T20:13:49.417Z,27.42
2023-02-13T20:16:17.441Z,26.98
2023-02-13T20:18:44.985Z,26.00
2023-02-13T20:21:13.397Z,25.10
2023-02-13T20:23:41.016Z,23.50
2023-02-13T20:26:10.879Z,23.13
2023-02-13T20:28:38.740Z,24.55
2023-02-13T20:31:10.562Z,24.08
2023-02-13T20:33:38.873Z,27.17
2023-02-13T20:36:10.205Z,24.50
2023-02-13T20:38:37.607Z,24.33
2023-02-13T20:41:09.098Z,28.27
2023-02-13T20:43:37.428Z,29.33
2023-02-13T20:46:05.234Z,25.98
2023-02-13T20:48:32.710Z,25.95
2023-02-13T20:51:01.155Z,27.13
2023-02-13T20:53:29.546Z,25.58
2023-02-13T20:56:02.263Z,27.27
2023-02-13T20:58:29.494Z,25.45
2023-02-13T21:00:56.757Z,25.70
2023-02-13T21:03:24.057Z,26.38
2023-02-13T21:05:51.379Z,27.55
2023-02-13T21:08:18.734Z,27.65
2023-02-13T21:10:45.992Z,25.60
2023-02-13T21:13:13.280Z,26.20
2023-02-13T21:15:40.530Z,26.60
2023-02-13T21:18:07.795Z,28.20
2023-02-13T21:20:35.009Z,28.63
2023-02-13T21:23:02.997Z,25.30
2023-02-13T21:25:30.281Z,29.73
2023-02-13T21:27:57.638Z,29.13
2023-02-13T21:30:24.992Z,27.92
2023-02-13T21:32:52.273Z,26.48
2023-02-13T21:35:19.521Z,26.08
2023-02-13T21:37:46.781Z,26.40
2023-02-13T21:40:14.084Z,29.40
2023-02-13T21:42:41.327Z,28.35
2023-02-13T21:45:09.148Z,29.25
2023-02-13T21:47:37.939Z,30.92
2023-02-13T21:50:08.521Z,28.88
2023-02-13T21:52:36.261Z,27.65
2023-02-13T21:55:03.822Z,28.88
2023-02-13T21:57:31.092Z,30.25
2023-02-13T21:59:58.344Z,28.58
2023-02-13T22:02:27.044Z,26.70
2023-02-13T22:04:54.390Z,26.83
2023-02-13T22:07:21.714Z,27.77
2023-02-13T22:09:50.538Z,26.48
2023-02-13T22:12:17.839Z,25.15
2023-02-13T22:14:45.095Z,26.73
2023-02-13T22:17:12.362Z,27.48
2023-02-13T22:19:39.619Z,27.63
2023-02-13T22:22:07.082Z,27.88
2023-02-13T22:24:34.368Z,28.25
2023-02-13T22:27:03.030Z,28.27
2023-02-13T22:29:30.361Z,26.17
2023-02-13T22:31:57.725Z,26.00
2023-02-13T22:34:25.024Z,26.63
2023-02-13T22:36:52.300Z,28.42
2023-02-13T22:39:19.521Z,30.05
2023-02-13T22:41:46.861Z,28.92
2023-02-13T22:44:14.196Z,28.63
2023-02-13T22:46:41.565Z,28.13
2023-02-13T22:49:08.904Z,30.50
2023-02-13T22:51:37.081Z,28.70
2023-02-13T22:54:04.841Z,27.42
2023-02-13T22:56:32.903Z,30.85
2023-02-13T22:59:00.560Z,28.38
2023-02-13T23:01:28.528Z,29.25
2023-02-13T23:03:56.478Z,27.90
2023-02-13T23:06:24.014Z,29.17
2023-02-13T23:08:53.533Z,30.52
2023-02-13T23:11:40.885Z,31.73
2023-02-13T23:14:08.164Z,30.25
2023-02-13T23:16:54.499Z,30.13
2023-02-13T23:19:22.000Z,28.55
2023-02-13T23:21:49.596Z,30.85
2023-02-13T23:24:17.327Z,28.00
2023-02-13T23:26:45.766Z,29.73
2023-02-13T23:29:12.998Z,28.60
2023-02-13T23:31:40.419Z,28.85
2023-02-13T23:34:07.790Z,28.02
2023-02-13T23:36:35.189Z,29.48
2023-02-13T23:39:02.639Z,28.50
2023-02-13T23:41:29.971Z,28.75
2023-02-13T23:43:57.279Z,29.67
2023-02-13T23:46:24.568Z,28.33
2023-02-13T23:48:51.833Z,26.58
2023-02-13T23:51:20.928Z,25.95
2023-02-13T23:53:48.195Z,27.25
2023-02-13T23:56:15.600Z,28.10
2023-02-13T23:58:42.877Z,27.75
